createdAt,value
2022-08-21T00:00:20.913Z,90.71
2022-08-21T00:05:52.433Z,90.87
2022-08-21T00:11:24.412Z,90.91
2022-08-21T00:17:02.145Z,91.14
2022-08-21T00:22:34.343Z,91.16
2022-08-21T00:28:06.441Z,91.43
2022-08-21T00:33:37.970Z,91.22
2022-08-21T00:39:10.195Z,91.33
2022-08-21T00:44:42.428Z,91.58
2022-08-21T00:50:21.397Z,91.46
2022-08-21T00:55:46.223Z,91.52
2022-08-21T01:01:18.431Z,91.64
2022-08-21T01:06:50.137Z,92.01
2022-08-21T01:12:21.753Z,92.06
2022-08-21T01:17:59.522Z,92.48
2022-08-21T01:23:37.166Z,92.20
2022-08-21T01:29:09.130Z,92.07
2022-08-21T01:34:46.966Z,92.01
2022-08-21T01:40:18.660Z,91.78
2022-08-21T01:45:50.319Z,91.87
2022-08-21T01:51:22.465Z,91.97
2022-08-21T01:57:00.523Z,91.69
2022-08-21T02:02:32.435Z,91.90
2022-08-21T02:08:10.123Z,92.20
2022-08-21T02:13:47.822Z,92.52
2022-08-21T02:19:25.652Z,92.26
2022-08-21T02:24:57.626Z,92.17
2022-08-21T02:30:29.733Z,92.36
2022-08-21T02:36:01.588Z,92.19
2022-08-21T02:41:33.335Z,92.10
2022-08-21T02:47:05.082Z,91.88
2022-08-21T02:52:42.560Z,92.04
2022-08-21T02:58:14.785Z,92.09
2022-08-21T03:03:46.367Z,92.16
2022-08-21T03:09:18.307Z,92.16
2022-08-21T03:14:50.323Z,92.17
2022-08-21T03:20:28.345Z,92.30
2022-08-21T03:26:00.769Z,92.12
2022-08-21T03:31:32.283Z,92.44
2022-08-21T03:37:04.409Z,92.16
2022-08-21T03:39:15.280Z,92.18
2022-08-21T03:44:47.583Z,92.51
2022-08-21T03:50:19.612Z,92.43
2022-08-21T03:55:52.581Z,92.70
2022-08-21T04:01:24.592Z,92.73
2022-08-21T04:06:56.501Z,92.59
2022-08-21T04:12:28.338Z,92.88
2022-08-21T04:18:00.165Z,93.18
2022-08-21T04:23:32.009Z,93.25
2022-08-21T04:29:03.862Z,92.81
2022-08-21T04:34:35.751Z,92.86
2022-08-21T04:40:07.924Z,92.81
2022-08-21T04:45:39.674Z,92.69
2022-08-21T04:51:11.371Z,92.60
2022-08-21T04:56:42.889Z,92.63
2022-08-21T05:07:44.133Z,92.95
2022-08-21T05:13:15.702Z,92.96
2022-08-21T05:18:47.493Z,93.10
2022-08-21T05:24:19.359Z,92.90
2022-08-21T05:29:51.420Z,91.73
2022-08-21T05:35:22.920Z,89.69
2022-08-21T05:40:54.811Z,88.64
2022-08-21T05:46:26.614Z,84.80
2022-08-21T05:51:58.493Z,82.44
2022-08-21T05:57:30.126Z,75.64
2022-08-21T06:03:02.307Z,74.69
2022-08-21T06:08:34.029Z,75.29
2022-08-21T06:14:05.827Z,73.35
2022-08-21T06:19:37.427Z,68.67
2022-08-21T06:25:08.975Z,67.92
2022-08-21T06:30:40.482Z,66.73
2022-08-21T06:36:12.411Z,63.73
2022-08-21T06:41:44.101Z,57.37
2022-08-21T06:47:15.906Z,57.02
2022-08-21T06:52:48.086Z,53.69
2022-08-21T06:58:19.702Z,53.51
2022-08-21T07:03:51.335Z,53.25
2022-08-21T07:09:24.848Z,51.89
2022-08-21T07:14:55.119Z,50.90
2022-08-21T07:20:26.958Z,49.91
2022-08-21T07:25:58.732Z,50.30
2022-08-21T07:31:30.827Z,47.94
2022-08-21T07:37:09.866Z,46.63
2022-08-21T07:42:34.605Z,46.34
2022-08-21T07:48:06.177Z,46.97
2022-08-21T07:53:38.308Z,46.19
2022-08-21T07:59:10.010Z,46.49
2022-08-21T08:04:50.927Z,45.23
2022-08-21T08:10:13.618Z,45.66
2022-08-21T08:15:45.361Z,45.19
2022-08-21T08:21:17.280Z,44.26
2022-08-21T08:26:54.021Z,47.49
2022-08-21T08:32:21.083Z,46.11
2022-08-21T08:37:53.065Z,43.84
2022-08-21T08:43:24.915Z,45.19
2022-08-21T08:54:26.205Z,46.42
2022-08-21T08:59:58.013Z,47.78
2022-08-21T09:05:29.400Z,48.99
2022-08-21T09:11:01.034Z,48.30
2022-08-21T09:16:32.726Z,50.29
2022-08-21T09:33:04.229Z,49.00
2022-08-21T09:38:35.849Z,50.17
2022-08-21T09:44:08.015Z,50.82
2022-08-21T09:49:39.822Z,51.36
2022-08-21T09:55:12.376Z,51.38
2022-08-21T10:06:16.002Z,56.51
2022-08-21T10:11:47.887Z,55.01
2022-08-21T10:17:20.023Z,57.46
2022-08-21T10:22:52.190Z,58.24
2022-08-21T10:33:55.692Z,57.55
2022-08-21T10:39:35.542Z,59.19
2022-08-21T10:44:59.394Z,57.66
2022-08-21T10:50:31.172Z,57.30
2022-08-21T10:56:02.860Z,58.26
2022-08-21T11:01:34.688Z,57.21
2022-08-21T11:07:09.247Z,57.55
2022-08-21T11:12:38.233Z,55.39
2022-08-21T11:18:10.089Z,57.98
2022-08-21T11:23:41.837Z,53.72
2022-08-21T11:29:13.735Z,53.27
2022-08-21T11:34:45.402Z,50.07
2022-08-21T11:40:17.376Z,52.45
2022-08-21T11:45:49.030Z,50.79
2022-08-21T11:51:20.775Z,49.61
2022-08-21T11:56:52.564Z,47.51
2022-08-21T12:02:24.274Z,45.94
2022-08-21T12:07:59.258Z,45.28
2022-08-21T12:13:39.768Z,49.24
2022-08-21T12:18:59.812Z,46.78
2022-08-21T12:30:03.216Z,45.60
2022-08-21T12:35:35.327Z,43.66
2022-08-21T12:41:07.137Z,44.04
2022-08-21T12:46:38.486Z,44.88
2022-08-21T12:52:09.919Z,45.13
2022-08-21T12:54:31.941Z,44.97
2022-08-21T13:00:03.401Z,44.92
2022-08-21T13:05:36.124Z,43.59
2022-08-21T13:11:09.279Z,45.12
2022-08-21T13:16:39.482Z,45.13
2022-08-21T13:29:55.883Z,45.28
2022-08-21T13:35:27.325Z,45.45
2022-08-21T13:46:31.125Z,46.86
2022-08-21T13:52:02.753Z,46.28
2022-08-21T13:57:34.468Z,46.29
2022-08-21T14:08:38.362Z,46.04
2022-08-21T14:14:10.196Z,45.43
2022-08-21T14:19:41.838Z,44.86
2022-08-21T14:25:13.698Z,44.26
2022-08-21T14:30:45.534Z,44.94
2022-08-21T14:36:18.955Z,45.15
2022-08-21T14:41:50.600Z,45.79
2022-08-21T14:47:22.439Z,44.87
2022-08-21T14:52:54.166Z,43.68
2022-08-21T14:58:25.820Z,42.82
2022-08-21T15:03:57.620Z,42.26
2022-08-21T15:15:01.498Z,42.38
2022-08-21T15:20:33.018Z,42.44
2022-08-21T15:26:04.958Z,42.58
2022-08-21T15:31:36.513Z,41.81
2022-08-21T15:37:08.638Z,42.08
2022-08-21T15:42:40.136Z,42.33
2022-08-21T15:48:12.007Z,42.76
2022-08-21T15:53:44.085Z,43.35
2022-08-21T15:59:16.597Z,44.33
2022-08-21T16:04:48.287Z,43.00
2022-08-21T16:10:19.719Z,43.45
2022-08-21T16:15:51.597Z,42.66
2022-08-21T16:21:23.129Z,44.01
2022-08-21T16:26:57.903Z,44.73
2022-08-21T16:32:26.879Z,44.82
2022-08-21T16:37:58.838Z,45.60
2022-08-21T16:43:30.074Z,45.81
2022-08-21T16:49:01.507Z,45.26
2022-08-21T16:54:33.644Z,44.92
2022-08-21T17:00:05.187Z,44.78
2022-08-21T17:05:37.064Z,44.46
2022-08-21T17:11:08.720Z,44.00
2022-08-21T17:16:40.479Z,44.24
2022-08-21T17:22:11.936Z,44.88
2022-08-21T17:27:44.410Z,45.47
2022-08-21T17:33:16.057Z,45.74
2022-08-21T17:38:47.890Z,46.12
2022-08-21T17:44:19.964Z,46.35
2022-08-21T17:49:52.307Z,46.80
2022-08-21T17:55:23.940Z,47.36
2022-08-21T18:00:55.670Z,47.71
2022-08-21T18:06:27.559Z,48.51
2022-08-21T18:11:59.193Z,49.16
2022-08-21T18:17:30.872Z,50.19
2022-08-21T18:23:02.712Z,51.30
2022-08-21T18:28:34.438Z,52.57
2022-08-21T18:34:06.536Z,53.02
2022-08-21T18:39:38.458Z,54.87
2022-08-21T18:45:09.932Z,56.39
2022-08-21T18:50:41.733Z,56.06
2022-08-21T18:56:15.873Z,57.33
2022-08-21T19:01:48.248Z,56.94
2022-08-21T19:07:17.859Z,58.90
2022-08-21T19:12:49.773Z,57.77
2022-08-21T19:18:25.739Z,58.98
2022-08-21T19:23:53.620Z,62.01
2022-08-21T19:29:35.135Z,59.71
2022-08-21T19:34:58.079Z,59.88
2022-08-21T19:40:30.139Z,60.71
2022-08-21T19:46:02.171Z,62.81
2022-08-21T19:51:34.155Z,61.72
2022-08-21T19:57:06.657Z,62.53
2022-08-21T20:02:38.553Z,62.64
2022-08-21T20:10:32.408Z,63.46
2022-08-21T20:16:04.118Z,63.92
2022-08-21T20:21:43.717Z,65.56
2022-08-21T20:27:07.840Z,66.19
2022-08-21T20:32:39.627Z,66.28
2022-08-21T20:38:11.682Z,66.97
2022-08-21T20:43:43.640Z,67.42
2022-08-21T20:49:15.718Z,67.92
2022-08-21T20:54:47.877Z,69.43
2022-08-21T21:00:20.144Z,69.58
2022-08-21T21:05:51.827Z,70.36
2022-08-21T21:11:23.596Z,70.15
2022-08-21T21:16:55.315Z,69.91
2022-08-21T21:22:27.063Z,68.58
2022-08-21T21:27:58.899Z,69.88
2022-08-21T21:33:30.755Z,71.40
2022-08-21T21:39:02.813Z,70.70
2022-08-21T21:44:34.829Z,68.99
2022-08-21T21:50:06.803Z,66.77
2022-08-21T21:55:38.545Z,72.60
2022-08-21T22:01:10.953Z,72.47
2022-08-21T22:06:42.713Z,75.76
2022-08-21T22:12:14.341Z,73.69
2022-08-21T22:17:46.201Z,76.02
2022-08-21T22:23:18.117Z,75.79
2022-08-21T22:28:49.648Z,75.46
2022-08-21T22:34:21.244Z,72.76
2022-08-21T22:39:52.963Z,74.77
2022-08-21T22:45:25.033Z,76.32
2022-08-21T22:50:56.616Z,75.83
2022-08-21T22:56:28.869Z,76.52
2022-08-21T23:07:30.208Z,76.90
2022-08-21T23:13:02.176Z,76.63
2022-08-21T23:18:33.979Z,75.85
2022-08-21T23:24:05.728Z,76.99
2022-08-21T23:29:37.798Z,77.58
2022-08-21T23:35:09.647Z,79.49
2022-08-21T23:46:13.411Z,78.96
2022-08-21T23:51:45.326Z,79.50
2022-08-21T23:57:23.234Z,80.02
